Daniel Stewart

Olheiro-Chefe - Arsenal
23 Jan 2028
Domingo
Processo

Personalidade

Adaptabilidade (18) Ambição (6) Controvérsia (9) Lealdade (19) Pressão (16) Profissionalismo (8) Espírito Esportivo (8) Temperamento (8)

Perfil

Estilo de Treinamento Democrático
Licença Continental Pro
Determinação 11
Gestão de Pessoas 16
Motivação 17
Disciplina 9
Satisfação no Trabalho
45%
Fadiga
0%
Função Olheiro-Chefe
Salário 20.4K p/s
Contrato 14.03.2028

Desempenho

Comportamento Bom
Eficácia do Treinamento
21%
Desenvolvimento do Jogador
60%
Prevenção de Lesões
60%
Implementação Tática
45%

Eventos Recentes

Participou de uma reunião de recrutamento agora
Recomendou um alvo de transferência agora
Negociação de contrato iniciada agora
Participando de desenvolvimento profissional agora
Negociação de contrato iniciada agora
Participando de desenvolvimento profissional agora
Negociação de contrato iniciada agora
Participando de desenvolvimento profissional agora

Monitorando agora

78
Jogador Clube Status Habilidade Confiança Observado Última observação Último voto
Alexander Isak Liverpool Perdido 182 / 178 40% 2 17.01.2028 -
Andrés García Aston Villa Relatório pronto 138 / 142 90% 1 17.01.2028 Aprovar
Bryan Mbeumo Manchester United Perdido 166 / 156 40% 1 17.01.2028 -
Nico Paz Aston Villa Perdido 166 / 174 40% 1 17.01.2028 -
Mao Hosoya Santos Negociando 134 / 135 67% 1 01.01.2028 Aprovar
Ayden Heaven Portsmouth Ativo 149 / 156 40% 1 01.01.2028 -
Jorthy Mokio ADO Den Haag Negociando 131 / 136 40% 1 01.01.2028 -
Rayan Cherki Manchester City Ativo 170 / 170 40% 5 05.07.2027 -
Santiago Castro AS Roma Ativo 150 / 144 40% 1 05.07.2027 -
Omar Nader Nottingham Forest Ativo 138 / 134 40% 1 05.07.2027 -
Chris Rigg Sunderland Ativo 127 / 148 40% 2 08.06.2027 -
Archie Gray Southampton Ativo 144 / 143 40% 3 08.06.2027 -
Ollie Scarles West Ham United Ativo 134 / 126 40% 31 03.06.2027 -
Ben Gannon Doak Charlton Athletic Ativo 139 / 153 40% 1 03.06.2027 -
Iliman N'Diaye Everton Ativo 158 / 166 86% 1 02.06.2027 Aprovar
Giovanni Leoni Lincoln City Ativo 132 / 133 40% 1 29.05.2027 -
Eliás Montiel Borussia Dortmund Ativo 132 / 138 40% 8 27.05.2027 -
Finn Jeltsch VfB Stuttgart Ativo 135 / 141 40% 6 26.05.2027 -
Josh Acheampong Everton Ativo 134 / 140 40% 15 24.05.2027 -
Jobe Bellingham Borussia Dortmund Ativo 138 / 141 40% 25 23.05.2027 -
Caleb Yirenkyi Coventry City Ativo 136 / 142 40% 33 22.05.2027 -
Davide Bartesaghi AC Milan Ativo 133 / 140 40% 14 21.05.2027 -
Matvey Kislyak CSKA Moscow Ativo 136 / 147 40% 22 20.05.2027 -
Josh King Newcastle United Ativo 136 / 155 40% 17 20.05.2027 -
Mateus Mané Burnley Ativo 130 / 150 40% 5 20.05.2027 -
Bence Dárdai VfL Wolfsburg Ativo 130 / 137 40% 4 19.05.2027 -
Rodrigo Mora AC Milan Ativo 136 / 136 40% 1 18.05.2027 -
Kirill Glebov CSKA Moscow Ativo 129 / 122 40% 4 15.05.2027 -
Bazoumana Touré Newcastle United Ativo 141 / 148 40% 1 15.05.2027 -
Jesús Rodríguez Como Ativo 146 / 144 40% 5 10.05.2027 -
Valentin Atangana Al-Ahli Ativo 133 / 144 40% 25 01.05.2027 -
Sidiki Chérif Newcastle United Ativo 130 / 141 40% 3 22.04.2027 -
Chemsdine Talbi Sunderland Ativo 145 / 138 40% 3 22.04.2027 -
Assane Diao Como Ativo 148 / 146 40% 2 18.04.2027 -
Roger Fernandes Galatasaray Ativo 134 / 144 40% 2 07.04.2027 -
Eivind Helland AC Milan Ativo 132 / 137 40% 6 01.04.2027 -
Kobbie Mainoo Manchester United Ativo 149 / 159 40% 16 29.03.2027 -
Kenan Yıldız Juventus Ativo 165 / 168 40% 3 29.03.2027 -
Nico O'Reilly Manchester City Ativo 153 / 152 40% 10 06.03.2027 -
Sindre Walle Egeli Udinese Ativo 132 / 142 40% 2 06.03.2027 -
Antoni Milambo Brentford Ativo 139 / 132 40% 2 28.02.2027 -
Antoine Semenyo Manchester City Ativo 159 / 151 40% 1 08.02.2027 Mais informações
Rodrigo Muniz Fulham Ativo 137 / 143 40% 1 08.02.2027 -
Hugo Ekitiké Liverpool Ativo 164 / 158 40% 6 07.02.2027 -
Rhian Brewster Oleksandriya Ativo 123 / 124 40% 1 07.02.2027 -
Gonzalo Fulham Ativo 143 / 138 40% 1 07.02.2027 -
Wandile Duba ASO Chlef Ativo 105 / 107 40% 1 03.02.2027 -
Stephen Amankona Aduana Stars Ativo 96 / 78 40% 1 02.02.2027 -
Etiosa Ighodaro Kaizer Chiefs Ativo 115 / 121 40% 1 02.02.2027 -
Konstantin Tyukavin Osasuna Ativo 132 / 133 66% 1 01.01.2027 Aprovar
Matheus Cunha Manchester United Ativo 157 / 165 40% 3 28.12.2026 -
Giorgi Mamardashvili Liverpool Ativo 158 / 156 40% 3 28.12.2026 -
Mile Svilar AS Roma Ativo 162 / 162 40% 3 28.12.2026 -
Bradley Zwane SuperSport United Ativo 123 / 115 40% 4 21.12.2026 -
Florian Wirtz Liverpool Ativo 172 / 171 40% 1 19.12.2026 Mais informações
Kevin Fulham Ativo 146 / 159 40% 3 16.12.2026 -
Alexis Mac Allister Liverpool Ativo 162 / 157 40% 3 14.12.2026 -
Enzo Fernández Manchester City Ativo 168 / 168 40% 3 12.12.2026 -
Finn Azaz Southampton Ativo 130 / 121 40% 1 05.12.2026 -
Senne Lammens Manchester United Ativo 151 / 155 40% 2 03.12.2026 -
Themba Williams Ajax Cape Town Ativo 116 / 104 40% 3 28.11.2026 -
Noah Sadiki Sunderland Ativo 142 / 156 40% 14 24.11.2026 -
Manu Koné AS Roma Ativo 166 / 165 40% 1 16.11.2026 -
Bongani Zungu Ajax Cape Town Ativo 121 / 123 40% 2 10.11.2026 -
Martín Ojeda Orlando City Ativo 133 / 130 40% 1 05.11.2026 -
Marcelo Allende Mamelodi Sundowns Ativo 132 / 130 40% 2 03.11.2026 -
Jesus Ferreira Seattle Sounders Ativo 126 / 113 40% 1 22.10.2026 -
Iván Angulo Orlando City Ativo 126 / 141 40% 1 16.10.2026 -
Marco Pašalić Orlando City Ativo 127 / 114 40% 1 16.10.2026 -
Oswin Appollis Orlando Pirates Ativo 119 / 123 40% 1 12.10.2026 -
Dominik Szoboszlai Liverpool Ativo 167 / 160 40% 1 14.09.2026 -
Iván Fresneda Sporting CP Ativo 135 / 148 40% 3 02.09.2026 -
Mathias De Amorim Famalicao Ativo 129 / 141 40% 1 30.08.2026 -
Lewis Hall Newcastle United Ativo 149 / 154 40% 2 29.08.2026 -
Givairo Read Feyenoord Ativo 135 / 147 40% 3 26.08.2026 -
Yarek Gąsiorowski PSV Ativo 129 / 135 40% 1 25.08.2026 -
Marcus Rashford Manchester United Ativo 159 / 156 40% 1 17.08.2026 -
Ousmane Dembélé Paris Saint-Germain Ativo 181 / 178 40% 1 11.08.2026 -